createdAt,value
2023-05-25T00:01:30.314Z,3.27
2023-05-25T00:04:00.682Z,3.28
2023-05-25T00:06:29.930Z,3.10
2023-05-25T00:08:57.664Z,3.00
2023-05-25T00:11:26.593Z,3.05
2023-05-25T00:13:55.973Z,3.20
2023-05-25T00:16:23.735Z,3.10
2023-05-25T00:18:53.193Z,3.40
2023-05-25T00:21:21.091Z,3.30
2023-05-25T00:23:48.784Z,3.92
2023-05-25T00:26:16.454Z,3.10
2023-05-25T00:28:44.188Z,3.33
2023-05-25T00:31:13.317Z,3.60
2023-05-25T00:33:41.279Z,3.30
2023-05-25T00:36:09.866Z,3.03
2023-05-25T00:38:37.551Z,3.27
2023-05-25T00:41:06.170Z,3.40
2023-05-25T00:43:33.916Z,2.90
2023-05-25T00:46:02.215Z,3.20
2023-05-25T00:48:31.414Z,3.53
2023-05-25T00:51:01.089Z,3.03
2023-05-25T00:53:28.987Z,3.23
2023-05-25T00:56:03.829Z,3.47
2023-05-25T00:58:34.823Z,3.23
2023-05-25T01:01:06.499Z,3.30
2023-05-25T01:03:38.303Z,3.10
2023-05-25T01:06:10.851Z,3.60
2023-05-25T01:08:41.313Z,3.60
2023-05-25T01:11:12.308Z,3.70
2023-05-25T01:13:41.910Z,3.60
2023-05-25T01:16:10.541Z,3.87
2023-05-25T01:18:41.879Z,2.90
2023-05-25T01:21:17.996Z,3.60
2023-05-25T01:23:52.447Z,3.40
2023-05-25T01:26:23.320Z,3.80
2023-05-25T01:28:54.090Z,3.25
2023-05-25T01:31:23.342Z,3.53
2023-05-25T01:33:52.858Z,3.80
2023-05-25T01:36:22.085Z,3.90
2023-05-25T01:38:50.031Z,3.85
2023-05-25T01:41:17.809Z,4.43
2023-05-25T01:43:45.821Z,3.90
2023-05-25T01:46:20.994Z,3.80
2023-05-25T01:48:55.902Z,4.03
2023-05-25T01:51:33.365Z,4.00
2023-05-25T01:54:08.632Z,3.90
2023-05-25T01:56:37.183Z,3.83
2023-05-25T01:59:08.285Z,3.30
2023-05-25T02:01:37.588Z,3.50
2023-05-25T02:04:06.093Z,3.92
2023-05-25T02:06:36.837Z,3.42
2023-05-25T02:09:04.703Z,3.63
2023-05-25T02:11:32.382Z,3.47
2023-05-25T02:14:00.137Z,4.10
2023-05-25T02:16:29.948Z,3.57
2023-05-25T02:18:59.079Z,3.95
2023-05-25T02:21:26.813Z,3.70
2023-05-25T02:23:58.031Z,4.05
2023-05-25T02:26:26.263Z,3.35
2023-05-25T02:28:53.979Z,3.97
2023-05-25T02:31:21.817Z,3.73
2023-05-25T02:33:49.515Z,3.90
2023-05-25T02:36:17.175Z,3.40
2023-05-25T02:38:44.897Z,3.55
2023-05-25T02:41:13.943Z,4.00
2023-05-25T02:43:41.616Z,3.85
2023-05-25T02:46:09.413Z,3.88
2023-05-25T02:48:37.165Z,3.90
2023-05-25T02:51:05.406Z,3.88
2023-05-25T02:53:33.178Z,3.95
2023-05-25T02:56:02.178Z,3.60
2023-05-25T02:58:31.224Z,3.75
2023-05-25T03:01:00.178Z,4.18
2023-05-25T03:03:28.102Z,3.20
2023-05-25T03:05:57.188Z,3.63
2023-05-25T03:08:24.932Z,4.20
2023-05-25T03:10:52.766Z,4.20
2023-05-25T03:13:20.491Z,3.65
2023-05-25T03:15:49.524Z,3.58
2023-05-25T03:18:17.212Z,4.35
2023-05-25T03:20:45.793Z,4.03
2023-05-25T03:23:13.526Z,4.03
2023-05-25T03:25:41.360Z,3.92
2023-05-25T03:28:09.090Z,4.30
2023-05-25T03:30:36.744Z,3.22
2023-05-25T03:33:05.889Z,4.15
2023-05-25T03:35:33.656Z,4.30
2023-05-25T03:38:01.300Z,3.85
2023-05-25T03:40:29.035Z,4.45
2023-05-25T03:42:56.685Z,4.97
2023-05-25T03:45:24.416Z,4.63
2023-05-25T03:47:52.124Z,5.18
2023-05-25T03:50:21.473Z,4.88
2023-05-25T03:52:49.122Z,4.72
2023-05-25T03:55:17.044Z,4.10
2023-05-25T03:57:44.771Z,4.40
2023-05-25T04:00:13.886Z,5.40
2023-05-25T04:02:41.961Z,4.28
2023-05-25T04:05:10.638Z,4.10
2023-05-25T04:07:40.758Z,4.60
2023-05-25T04:10:09.193Z,3.92
2023-05-25T04:12:37.275Z,4.45
2023-05-25T04:15:09.044Z,3.90
2023-05-25T04:17:39.206Z,5.03
2023-05-25T04:20:09.774Z,4.25
2023-05-25T04:22:39.626Z,4.88
2023-05-25T04:25:07.632Z,4.38
2023-05-25T04:27:35.621Z,4.82
2023-05-25T04:30:03.385Z,4.45
2023-05-25T04:32:32.079Z,4.90
2023-05-25T04:35:00.173Z,4.43
2023-05-25T04:37:29.064Z,4.13
2023-05-25T04:39:58.635Z,4.60
2023-05-25T04:42:26.983Z,4.90
2023-05-25T04:44:55.772Z,3.92
2023-05-25T04:47:25.105Z,5.28
2023-05-25T04:49:53.187Z,4.82
2023-05-25T04:52:20.884Z,5.37
2023-05-25T04:54:48.756Z,4.55
2023-05-25T04:57:17.895Z,4.95
2023-05-25T04:59:45.738Z,4.73
2023-05-25T05:02:13.446Z,4.95
2023-05-25T05:04:41.572Z,4.67
2023-05-25T05:07:09.424Z,4.93
2023-05-25T05:09:37.288Z,6.07
2023-05-25T05:12:05.332Z,5.80
2023-05-25T05:14:34.354Z,4.72
2023-05-25T05:17:02.166Z,4.55
2023-05-25T05:19:29.983Z,6.55
2023-05-25T05:21:57.880Z,5.65
2023-05-25T05:24:26.053Z,6.40
2023-05-25T05:26:58.118Z,5.70
2023-05-25T05:29:28.585Z,5.65
2023-05-25T05:31:57.825Z,5.68
2023-05-25T05:34:25.579Z,5.70
2023-05-25T05:36:58.209Z,5.97
2023-05-25T05:39:27.012Z,5.50
2023-05-25T05:41:55.019Z,5.28
2023-05-25T05:44:25.978Z,5.47
2023-05-25T05:47:00.160Z,5.32
2023-05-25T05:49:30.819Z,5.30
2023-05-25T05:51:59.280Z,5.63
2023-05-25T05:54:27.811Z,5.45
2023-05-25T05:56:55.952Z,5.50
2023-05-25T05:59:23.973Z,5.47
2023-05-25T06:01:51.838Z,6.13
2023-05-25T06:04:20.294Z,5.33
2023-05-25T06:06:49.345Z,5.30
2023-05-25T06:09:17.129Z,5.53
2023-05-25T06:11:45.049Z,5.13
2023-05-25T06:14:12.810Z,5.40
2023-05-25T06:16:40.874Z,5.63
2023-05-25T06:19:08.624Z,5.77
2023-05-25T06:21:37.018Z,6.13
2023-05-25T06:24:07.373Z,6.40
2023-05-25T06:26:35.246Z,5.50
2023-05-25T06:29:03.158Z,6.37
2023-05-25T06:31:30.987Z,6.20
2023-05-25T06:33:58.897Z,6.20
2023-05-25T06:36:27.488Z,5.90
2023-05-25T06:38:55.495Z,6.20
2023-05-25T06:41:24.776Z,7.30
2023-05-25T06:43:52.471Z,6.50
2023-05-25T06:46:21.683Z,6.60
2023-05-25T06:48:49.442Z,6.03
2023-05-25T06:51:17.316Z,5.50
2023-05-25T06:53:45.181Z,5.93
2023-05-25T06:56:12.915Z,6.70
2023-05-25T06:58:42.191Z,6.40
2023-05-25T07:01:10.004Z,6.60
2023-05-25T07:03:38.691Z,6.57
2023-05-25T07:06:06.865Z,7.03
2023-05-25T07:08:34.873Z,7.37
2023-05-25T07:11:02.688Z,6.27
2023-05-25T07:13:30.461Z,6.67
2023-05-25T07:15:59.618Z,6.87
2023-05-25T07:18:28.509Z,6.70
2023-05-25T07:20:56.300Z,6.27
2023-05-25T07:23:24.086Z,6.53
2023-05-25T07:25:51.842Z,6.60
2023-05-25T07:28:19.642Z,7.03
2023-05-25T07:30:47.365Z,6.90
2023-05-25T07:33:16.643Z,7.10
2023-05-25T07:35:44.762Z,6.70
2023-05-25T07:38:12.718Z,7.47
2023-05-25T07:40:40.733Z,7.33
2023-05-25T07:43:08.790Z,6.60
2023-05-25T07:45:36.590Z,7.17
2023-05-25T07:48:07.132Z,7.37
2023-05-25T07:50:36.475Z,7.00
2023-05-25T07:53:04.259Z,6.50
2023-05-25T07:55:32.151Z,7.00
2023-05-25T07:57:59.950Z,6.90
2023-05-25T08:00:27.689Z,7.03
2023-05-25T08:02:56.792Z,7.20
2023-05-25T08:05:24.772Z,6.50
2023-05-25T08:07:54.630Z,6.50
2023-05-25T08:10:23.517Z,6.83
2023-05-25T08:12:52.707Z,6.80
2023-05-25T08:15:20.921Z,6.97
2023-05-25T08:17:50.837Z,7.20
2023-05-25T08:20:19.022Z,6.70
2023-05-25T08:22:47.141Z,7.37
2023-05-25T08:25:16.608Z,7.20
2023-05-25T08:27:44.748Z,7.63
2023-05-25T08:30:13.402Z,6.87
2023-05-25T08:32:41.159Z,7.70
2023-05-25T08:35:09.986Z,7.10
2023-05-25T08:37:37.776Z,8.80
2023-05-25T08:40:07.927Z,7.10
2023-05-25T08:42:37.094Z,7.73
2023-05-25T08:45:05.234Z,6.93
2023-05-25T08:47:35.940Z,7.13
2023-05-25T08:50:05.026Z,7.07
2023-05-25T08:52:35.344Z,7.20
2023-05-25T08:55:06.672Z,6.83
2023-05-25T08:57:46.759Z,7.37
2023-05-25T09:00:18.638Z,7.47
2023-05-25T09:02:52.253Z,7.20
2023-05-25T09:05:20.813Z,8.27
2023-05-25T09:07:49.652Z,7.67
2023-05-25T09:10:18.799Z,7.40
2023-05-25T09:12:49.034Z,7.80
2023-05-25T09:15:16.829Z,7.63
2023-05-25T09:17:44.826Z,7.57
2023-05-25T09:20:14.071Z,7.60
2023-05-25T09:22:42.376Z,7.97
2023-05-25T09:25:12.598Z,7.93
2023-05-25T09:27:40.518Z,7.47
2023-05-25T09:30:10.716Z,7.90
2023-05-25T09:32:39.349Z,7.40
2023-05-25T09:35:11.287Z,7.67
2023-05-25T09:37:39.453Z,7.63
2023-05-25T09:40:08.954Z,8.10
2023-05-25T09:42:37.419Z,8.10
2023-05-25T09:45:06.361Z,7.37
2023-05-25T09:47:38.262Z,7.80
2023-05-25T09:50:07.066Z,8.33
2023-05-25T09:52:34.968Z,8.00
2023-05-25T09:55:03.778Z,7.87
2023-05-25T09:57:31.586Z,8.67
2023-05-25T09:59:59.551Z,8.67
2023-05-25T10:02:27.740Z,7.60
2023-05-25T10:04:57.684Z,8.20
2023-05-25T10:07:27.166Z,6.90
2023-05-25T10:09:56.850Z,7.20
2023-05-25T10:12:25.907Z,7.67
2023-05-25T10:14:56.184Z,7.10
2023-05-25T10:17:25.644Z,6.97
2023-05-25T10:19:59.059Z,7.07
2023-05-25T10:22:34.181Z,8.00
2023-05-25T10:25:11.308Z,7.17
2023-05-25T10:27:42.209Z,6.83
2023-05-25T10:30:11.195Z,7.60
2023-05-25T10:32:40.088Z,7.70
2023-05-25T10:35:10.076Z,7.17
2023-05-25T10:37:39.419Z,7.37
2023-05-25T10:40:09.534Z,7.57
2023-05-25T10:42:38.525Z,7.07
2023-05-25T10:45:09.784Z,7.40
2023-05-25T10:47:41.682Z,8.33
2023-05-25T10:50:20.434Z,7.90
2023-05-25T10:52:58.774Z,7.47
2023-05-25T10:55:31.221Z,6.90
2023-05-25T10:58:08.991Z,6.60
2023-05-25T11:00:37.048Z,7.07
2023-05-25T11:03:05.699Z,6.50
2023-05-25T11:05:38.274Z,7.10
2023-05-25T11:08:08.954Z,7.23
2023-05-25T11:10:44.462Z,8.40
2023-05-25T11:13:37.941Z,6.90
2023-05-25T11:16:36.201Z,6.93
2023-05-25T11:19:04.725Z,6.80
2023-05-25T11:21:47.001Z,6.10
2023-05-25T11:24:17.045Z,6.53
2023-05-25T11:26:56.446Z,5.80
2023-05-25T11:29:25.901Z,7.60
2023-05-25T11:31:56.026Z,7.07
2023-05-25T11:34:25.785Z,7.10
2023-05-25T11:37:02.158Z,7.90
2023-05-25T11:39:30.582Z,7.03
2023-05-25T11:42:03.945Z,6.43
2023-05-25T11:44:33.543Z,6.70
2023-05-25T11:47:05.008Z,7.70
2023-05-25T11:49:32.766Z,6.90
2023-05-25T11:52:07.191Z,7.87
2023-05-25T11:54:36.176Z,6.63
2023-05-25T11:57:04.761Z,7.03
2023-05-25T11:59:33.585Z,7.37
2023-05-25T12:02:02.601Z,7.63
2023-05-25T12:04:31.236Z,6.80
2023-05-25T12:07:07.768Z,6.73
2023-05-25T12:09:36.774Z,7.37
2023-05-25T12:12:05.845Z,6.30
2023-05-25T12:14:38.678Z,6.47
2023-05-25T12:17:07.803Z,7.73
2023-05-25T12:19:36.480Z,6.90
2023-05-25T12:22:06.273Z,6.67
2023-05-25T12:24:34.134Z,6.60
2023-05-25T12:27:02.451Z,7.40
2023-05-25T12:29:33.389Z,6.90
2023-05-25T12:32:05.626Z,7.33
2023-05-25T12:34:35.735Z,6.80
2023-05-25T12:37:03.743Z,7.13
2023-05-25T12:39:39.609Z,7.30
2023-05-25T12:42:14.635Z,6.93
2023-05-25T12:44:43.455Z,6.90
2023-05-25T12:47:12.713Z,7.20
2023-05-25T12:49:42.003Z,7.67
2023-05-25T12:52:11.748Z,6.97
2023-05-25T12:54:44.268Z,7.27
2023-05-25T12:57:14.050Z,7.43
2023-05-25T12:59:43.435Z,6.50
2023-05-25T13:02:12.818Z,7.17
2023-05-25T13:04:42.533Z,6.83
2023-05-25T13:07:10.717Z,6.90
2023-05-25T13:09:38.825Z,6.70
2023-05-25T13:12:08.916Z,6.37
2023-05-25T13:14:37.154Z,7.00
2023-05-25T13:17:05.919Z,7.20
2023-05-25T13:19:33.807Z,6.13
2023-05-25T13:22:01.872Z,7.57
2023-05-25T13:24:29.604Z,6.60
2023-05-25T13:26:57.423Z,7.37
2023-05-25T13:29:26.733Z,6.53
2023-05-25T13:31:54.594Z,7.53
2023-05-25T13:34:22.400Z,6.53
2023-05-25T13:36:50.135Z,6.60
2023-05-25T13:39:18.362Z,6.90
2023-05-25T13:41:46.423Z,6.67
2023-05-25T13:44:16.529Z,7.00
2023-05-25T13:46:46.824Z,7.00
2023-05-25T13:49:16.256Z,6.30
2023-05-25T13:51:44.292Z,6.77
2023-05-25T13:54:12.837Z,6.43
2023-05-25T13:56:42.386Z,5.90
2023-05-25T13:59:10.488Z,6.33
2023-05-25T14:01:38.434Z,6.40
2023-05-25T14:04:07.728Z,6.70
2023-05-25T14:06:35.960Z,7.17
2023-05-25T14:09:04.045Z,5.93
2023-05-25T14:11:31.859Z,6.70
2023-05-25T14:13:59.576Z,7.13
2023-05-25T14:16:27.555Z,5.83
2023-05-25T14:18:56.449Z,7.53
2023-05-25T14:21:25.709Z,5.83
2023-05-25T14:23:53.432Z,6.90
2023-05-25T14:26:22.115Z,6.50
2023-05-25T14:28:50.026Z,6.87
2023-05-25T14:31:18.048Z,6.80
2023-05-25T14:33:47.280Z,6.27
2023-05-25T14:36:15.151Z,6.70
2023-05-25T14:38:44.221Z,5.90
2023-05-25T14:41:11.963Z,6.60
2023-05-25T14:43:39.819Z,6.10
2023-05-25T14:46:08.702Z,6.43
2023-05-25T14:48:36.529Z,6.53
2023-05-25T14:51:04.666Z,6.33
2023-05-25T14:53:32.509Z,6.43
2023-05-25T14:56:02.769Z,7.43
2023-05-25T14:58:32.351Z,6.77
2023-05-25T15:01:00.198Z,6.73
2023-05-25T15:03:28.141Z,6.90
2023-05-25T15:05:56.284Z,6.97
2023-05-25T15:08:24.031Z,6.27
2023-05-25T15:10:51.801Z,6.27
2023-05-25T15:13:22.609Z,6.97
2023-05-25T15:15:52.070Z,6.17
2023-05-25T15:18:19.926Z,6.00
2023-05-25T15:20:47.920Z,6.50
2023-05-25T15:23:16.469Z,6.00
2023-05-25T15:25:44.327Z,6.03
2023-05-25T15:28:12.078Z,6.47
2023-05-25T15:30:41.261Z,6.50
2023-05-25T15:33:09.514Z,7.00
2023-05-25T15:35:37.281Z,6.23
2023-05-25T15:38:05.045Z,5.97
2023-05-25T15:40:32.905Z,6.33
2023-05-25T15:43:00.807Z,6.47
2023-05-25T15:45:28.581Z,6.57
2023-05-25T15:47:57.799Z,6.43
2023-05-25T15:50:25.950Z,6.60
2023-05-25T15:52:54.023Z,6.00
2023-05-25T15:55:22.122Z,6.40
2023-05-25T15:57:49.863Z,6.67
2023-05-25T16:00:18.164Z,5.30
2023-05-25T16:02:46.314Z,5.77
2023-05-25T16:05:15.554Z,6.67
2023-05-25T16:07:43.291Z,7.00
2023-05-25T16:10:11.501Z,6.30
2023-05-25T16:12:39.272Z,5.60
2023-05-25T16:15:07.945Z,6.00
2023-05-25T16:17:35.751Z,6.10
2023-05-25T16:20:03.542Z,6.83
2023-05-25T16:22:32.758Z,6.20
2023-05-25T16:25:00.486Z,6.40
2023-05-25T16:27:28.398Z,6.50
2023-05-25T16:29:56.283Z,5.93
2023-05-25T16:32:24.171Z,6.40
2023-05-25T16:34:52.022Z,6.63
2023-05-25T16:37:19.707Z,6.57
2023-05-25T16:39:49.381Z,6.80
2023-05-25T16:42:17.060Z,6.03
2023-05-25T16:44:44.787Z,6.20
2023-05-25T16:47:12.699Z,5.40
2023-05-25T16:49:40.538Z,5.80
2023-05-25T16:52:09.815Z,6.93
2023-05-25T16:54:37.626Z,6.00
2023-05-25T16:57:11.163Z,6.60
2023-05-25T16:59:39.350Z,6.30
2023-05-25T17:02:07.717Z,6.30
2023-05-25T17:04:35.485Z,6.20
2023-05-25T17:07:03.441Z,6.80
2023-05-25T17:09:31.147Z,6.03
2023-05-25T17:12:01.271Z,6.20
2023-05-25T17:14:31.044Z,6.10
2023-05-25T17:16:58.771Z,5.57
2023-05-25T17:19:26.454Z,7.03
2023-05-25T17:21:54.221Z,5.87
2023-05-25T17:24:22.007Z,6.30
2023-05-25T17:26:51.592Z,6.13
2023-05-25T17:29:19.455Z,5.80
2023-05-25T17:31:49.075Z,5.97
2023-05-25T17:34:17.187Z,6.00
2023-05-25T17:36:44.896Z,5.40
2023-05-25T17:39:12.665Z,5.93
2023-05-25T17:41:40.399Z,5.93
2023-05-25T17:44:08.194Z,5.60
2023-05-25T17:46:36.349Z,5.93
2023-05-25T17:49:06.321Z,6.20
2023-05-25T17:51:34.065Z,6.07
2023-05-25T17:54:01.894Z,6.33
2023-05-25T17:56:29.678Z,6.10
2023-05-25T17:58:57.450Z,6.10
2023-05-25T18:01:25.501Z,5.80
2023-05-25T18:03:53.845Z,5.50
2023-05-25T18:06:23.099Z,5.37
2023-05-25T18:08:50.898Z,5.57
2023-05-25T18:11:18.780Z,5.97
2023-05-25T18:13:46.589Z,5.43
2023-05-25T18:16:14.842Z,5.93
2023-05-25T18:18:42.653Z,5.97
2023-05-25T18:21:10.518Z,6.20
2023-05-25T18:23:39.738Z,5.50
2023-05-25T18:26:07.902Z,5.80
2023-05-25T18:28:35.695Z,5.73
2023-05-25T18:31:03.654Z,5.90
2023-05-25T18:33:31.541Z,5.90
2023-05-25T18:35:59.252Z,5.33
2023-05-25T18:38:27.128Z,5.53
2023-05-25T18:40:56.227Z,6.40
2023-05-25T18:43:24.384Z,6.40
2023-05-25T18:45:52.029Z,6.03
2023-05-25T18:48:19.780Z,7.23
2023-05-25T18:50:47.676Z,6.03
2023-05-25T18:53:15.526Z,7.57
2023-05-25T18:55:43.525Z,5.87
2023-05-25T18:58:12.722Z,6.53
2023-05-25T19:00:40.480Z,6.00
2023-05-25T19:03:08.387Z,5.40
2023-05-25T19:05:36.196Z,5.77
2023-05-25T19:08:03.875Z,5.70
2023-05-25T19:10:31.563Z,5.57
2023-05-25T19:12:59.325Z,6.57
2023-05-25T19:15:28.424Z,5.73
2023-05-25T19:17:56.134Z,5.47
2023-05-25T19:20:24.037Z,5.90
2023-05-25T19:22:51.773Z,5.50
2023-05-25T19:25:19.495Z,5.67
2023-05-25T19:27:47.248Z,5.83
2023-05-25T19:30:15.144Z,5.30
2023-05-25T19:33:03.592Z,6.30
2023-05-25T19:35:31.430Z,5.70
2023-05-25T19:38:01.792Z,6.40
2023-05-25T19:40:30.039Z,5.70
2023-05-25T19:42:57.778Z,5.60
2023-05-25T19:45:25.830Z,5.60
2023-05-25T19:47:55.596Z,5.90
2023-05-25T19:50:23.433Z,6.10
2023-05-25T19:52:51.216Z,5.77
2023-05-25T19:55:19.008Z,6.20
2023-05-25T19:57:46.722Z,5.97
2023-05-25T20:00:25.576Z,5.80
2023-05-25T20:02:55.857Z,5.10
2023-05-25T20:05:24.115Z,6.07
2023-05-25T20:07:52.589Z,5.83
2023-05-25T20:10:20.768Z,5.80
2023-05-25T20:12:48.542Z,5.70
2023-05-25T20:15:16.754Z,6.10
2023-05-25T20:17:44.599Z,5.87
2023-05-25T20:20:13.949Z,5.53
2023-05-25T20:22:42.005Z,6.53
2023-05-25T20:25:09.693Z,6.30
2023-05-25T20:27:37.400Z,6.03
2023-05-25T20:30:05.937Z,6.00
2023-05-25T20:32:33.693Z,6.23
2023-05-25T20:35:01.510Z,7.17
2023-05-25T20:37:30.912Z,6.17
2023-05-25T20:39:58.644Z,6.13
2023-05-25T20:42:26.360Z,5.13
2023-05-25T20:44:54.021Z,5.90
2023-05-25T20:47:22.046Z,5.70
2023-05-25T20:49:49.838Z,5.97
2023-05-25T20:52:17.596Z,6.10
2023-05-25T20:54:46.708Z,6.10
2023-05-25T20:57:14.588Z,6.17
2023-05-25T20:59:42.355Z,5.53
2023-05-25T21:02:10.181Z,5.33
2023-05-25T21:04:37.955Z,5.47
2023-05-25T21:07:05.820Z,5.60
2023-05-25T21:09:33.578Z,5.73
2023-05-25T21:12:03.526Z,6.63
2023-05-25T21:14:31.214Z,5.30
2023-05-25T21:16:58.968Z,5.83
2023-05-25T21:19:26.724Z,6.10
2023-05-25T21:21:54.578Z,5.90
2023-05-25T21:24:22.271Z,6.97
2023-05-25T21:26:50.002Z,6.10
2023-05-25T21:29:19.110Z,5.30
2023-05-25T21:31:47.322Z,6.03
2023-05-25T21:34:15.355Z,5.70
2023-05-25T21:36:43.157Z,5.90
2023-05-25T21:39:10.931Z,6.00
2023-05-25T21:41:38.659Z,5.37
2023-05-25T21:44:06.519Z,5.20
2023-05-25T21:46:35.681Z,5.47
2023-05-25T21:49:03.487Z,5.77
2023-05-25T21:51:32.166Z,6.20
2023-05-25T21:54:00.074Z,5.60
2023-05-25T21:56:27.846Z,7.27
2023-05-25T21:58:55.708Z,6.30
2023-05-25T22:01:24.276Z,5.57
2023-05-25T22:03:53.484Z,6.60
2023-05-25T22:06:21.274Z,6.60
2023-05-25T22:08:49.142Z,6.10
2023-05-25T22:11:16.903Z,5.93
2023-05-25T22:13:44.699Z,6.33
2023-05-25T22:16:12.420Z,7.00
2023-05-25T22:18:40.287Z,6.40
2023-05-25T22:21:09.384Z,6.37
2023-05-25T22:23:37.305Z,7.00
2023-05-25T22:26:05.591Z,5.70
2023-05-25T22:28:33.353Z,6.03
2023-05-25T22:31:01.171Z,6.43
2023-05-25T22:33:28.909Z,6.57
2023-05-25T22:35:56.548Z,6.10
2023-05-25T22:38:26.310Z,5.40
2023-05-25T22:40:54.034Z,5.60
2023-05-25T22:43:21.848Z,5.63
2023-05-25T22:45:49.803Z,5.70
2023-05-25T22:48:17.523Z,6.17
2023-05-25T22:50:45.360Z,5.20
2023-05-25T22:53:13.127Z,5.70
2023-05-25T22:55:43.050Z,6.83
2023-05-25T22:58:11.828Z,6.30
2023-05-25T23:00:39.506Z,5.67
2023-05-25T23:03:07.312Z,6.40
2023-05-25T23:05:35.181Z,6.60
2023-05-25T23:08:03.678Z,6.07
2023-05-25T23:10:31.474Z,6.73
2023-05-25T23:13:00.609Z,5.50
2023-05-25T23:15:28.528Z,5.50
2023-05-25T23:17:56.259Z,6.10
2023-05-25T23:20:24.264Z,5.57
2023-05-25T23:22:52.041Z,5.50
2023-05-25T23:25:19.763Z,6.07
2023-05-25T23:27:47.559Z,7.37
2023-05-25T23:30:16.897Z,6.27
2023-05-25T23:32:44.613Z,6.10
2023-05-25T23:35:12.390Z,5.53
2023-05-25T23:37:40.058Z,5.53
2023-05-25T23:40:09.653Z,5.97
2023-05-25T23:42:39.165Z,5.40
2023-05-25T23:45:09.765Z,6.00
2023-05-25T23:47:38.899Z,5.47
2023-05-25T23:50:07.365Z,5.67
2023-05-25T23:52:35.098Z,5.33
2023-05-25T23:55:02.852Z,4.90
2023-05-25T23:57:30.580Z,5.03
2023-05-25T23:59:58.289Z,5.67
